Time;durP1;ratioP1;P1;durP2;ratioP2;P2;SDS_P1;SDS_P2;PMS_P1;PMS_P2;Temp;Humidity;BMP_temperature;BMP_pressure;BME280_temperature;BME280_humidity;BME280_pressure;Samples;Min_cycle;Max_cycle;Signal;HPM_P1;HPM_P2
2022/05/13 00:01:48;;;;;;;10.45;4.85;;;;;;;20.98;59.16;99373.78;5133991;28;20415;-82
2022/05/13 00:04:39;;;;;;;7.32;4.65;;;;;;;20.99;58.64;99347.66;5150195;28;20409;-82
2022/05/13 00:07:30;;;;;;;6.03;4.05;;;;;;;21.11;58.79;99363.03;5165474;28;20582;-82
2022/05/13 00:10:20;;;;;;;7.40;4.15;;;;;;;21.08;58.09;99346.44;5164335;28;20094;-83
2022/05/13 00:13:10;;;;;;;10.48;4.20;;;;;;;20.93;59.00;99353.88;5159241;28;20057;-83
2022/05/13 00:16:02;;;;;;;6.22;4.25;;;;;;;20.83;58.93;99344.28;5164914;28;20624;-83
2022/05/13 00:18:52;;;;;;;8.90;4.07;;;;;;;20.88;58.72;99343.69;5169798;28;20110;-83
2022/05/13 00:21:42;;;;;;;6.78;3.83;;;;;;;20.89;59.18;99342.63;5168658;28;20109;-83
2022/05/13 00:24:32;;;;;;;5.85;4.05;;;;;;;21.02;58.74;99361.53;5169189;28;20121;-83
2022/05/13 00:27:23;;;;;;;5.82;3.72;;;;;;;20.96;58.78;99358.81;5171863;28;20061;-82
2022/05/13 00:30:13;;;;;;;8.02;4.05;;;;;;;20.96;57.85;99348.03;5168241;28;20451;-82
2022/05/13 00:33:05;;;;;;;6.40;3.85;;;;;;;21.01;58.47;99373.38;5171802;28;20263;-82
2022/05/13 00:35:56;;;;;;;6.50;4.22;;;;;;;20.74;59.07;99363.53;5153927;28;20521;-82
2022/05/13 00:38:47;;;;;;;4.95;3.90;;;;;;;21.02;57.80;99358.84;5163629;28;20057;-82
2022/05/13 00:41:38;;;;;;;5.47;3.78;;;;;;;20.81;58.41;99346.34;5149119;28;20094;-82
2022/05/13 00:44:28;;;;;;;4.72;3.80;;;;;;;20.75;58.78;99336.38;5163454;28;20424;-82
2022/05/13 00:47:19;;;;;;;6.70;4.15;;;;;;;20.91;58.88;99355.94;5148751;28;20056;-81
2022/05/13 00:50:11;;;;;;;9.32;3.88;;;;;;;20.90;59.00;99362.34;5164121;28;20116;-82
2022/05/13 00:53:03;;;;;;;7.90;4.55;;;;;;;20.87;59.11;99350.94;5149139;28;20056;-82
2022/05/13 00:55:53;;;;;;;8.07;4.50;;;;;;;20.85;58.89;99362.94;5142852;28;20054;-82
2022/05/13 00:58:46;;;;;;;10.80;4.47;;;;;;;20.82;58.99;99352.56;5164818;28;20105;-83
2022/05/13 01:01:36;;;;;;;5.97;4.45;;;;;;;20.80;59.08;99346.56;5162289;28;20077;-82
2022/05/13 01:04:28;;;;;;;7.55;4.15;;;;;;;20.86;59.04;99353.81;5151261;28;20050;-81
2022/05/13 01:07:19;;;;;;;7.20;4.63;;;;;;;20.79;59.10;99329.53;5147660;28;20050;-82
2022/05/13 01:10:20;;;;;;;5.38;4.32;;;;;;;20.87;59.91;99334.75;5162135;28;20515;-81
2022/05/13 01:13:13;;;;;;;6.82;4.38;;;;;;;20.82;59.89;99331.00;5147587;28;20078;-81
2022/05/13 01:16:03;;;;;;;7.78;4.43;;;;;;;20.75;60.45;99336.38;5148380;28;20046;-83
2022/05/13 01:18:54;;;;;;;8.73;4.20;;;;;;;20.65;60.76;99342.13;5148852;28;20460;-82
2022/05/13 01:21:47;;;;;;;8.55;4.57;;;;;;;20.67;60.87;99322.25;5161430;28;20523;-82
2022/05/13 01:24:37;;;;;;;10.40;4.47;;;;;;;20.57;60.69;99323.44;5162520;28;20050;-81
2022/05/13 01:27:27;;;;;;;8.15;4.75;;;;;;;20.52;60.99;99315.13;5162305;28;20053;-84
2022/05/13 01:30:21;;;;;;;7.78;4.25;;;;;;;20.57;61.04;99334.22;5148573;28;20061;-82
2022/05/13 01:33:12;;;;;;;4.40;3.38;;;;;;;20.68;59.62;99348.97;5158365;28;20057;-82
2022/05/13 01:36:04;;;;;;;8.38;4.50;;;;;;;20.46;60.28;99342.00;5161233;28;20543;-82
2022/05/13 01:38:55;;;;;;;8.30;4.53;;;;;;;20.46;60.69;99328.53;5149720;28;20125;-82
2022/05/13 01:41:46;;;;;;;8.13;4.20;;;;;;;20.46;61.18;99317.75;5142590;28;20452;-82
2022/05/13 01:44:36;;;;;;;11.68;4.43;;;;;;;20.27;63.16;99341.72;5142437;28;20188;-81
2022/05/13 01:47:28;;;;;;;8.35;4.05;;;;;;;20.39;62.40;99352.72;5147538;28;20152;-81
2022/05/13 01:50:19;;;;;;;7.03;4.45;;;;;;;20.39;62.28;99340.09;5148407;28;20132;-81
2022/05/13 01:53:09;;;;;;;8.15;4.72;;;;;;;20.26;63.96;99347.28;5152705;28;20675;-81
2022/05/13 01:55:59;;;;;;;8.30;5.18;;;;;;;20.05;64.22;99351.69;5147365;28;20046;-82
2022/05/13 01:58:56;;;;;;;7.97;4.53;;;;;;;19.96;64.53;99342.09;5162481;28;20060;-82
2022/05/13 02:01:46;;;;;;;9.93;5.07;;;;;;;20.15;63.82;99349.50;5167844;28;20065;-81
2022/05/13 02:04:37;;;;;;;12.13;5.00;;;;;;;19.99;63.95;99348.97;5171571;28;20056;-81
2022/05/13 02:07:28;;;;;;;10.07;4.90;;;;;;;20.26;63.20;99317.66;5171476;28;20533;-82
2022/05/13 02:10:20;;;;;;;9.80;5.32;;;;;;;20.21;63.16;99322.81;5169739;28;20059;-81
2022/05/13 02:13:12;;;;;;;8.77;5.18;;;;;;;20.05;64.58;99345.50;5171416;28;20066;-81
2022/05/13 02:16:03;;;;;;;9.02;4.65;;;;;;;20.01;64.00;99333.47;5175620;28;20107;-82
2022/05/13 02:18:54;;;;;;;6.72;4.45;;;;;;;19.92;64.08;99335.44;5175745;28;20061;-82
2022/05/13 02:21:44;;;;;;;11.85;5.03;;;;;;;19.87;64.06;99332.53;5148084;28;20093;-81
2022/05/13 02:24:34;;;;;;;10.93;4.68;;;;;;;19.92;63.45;99330.06;5175426;28;20054;-82
2022/05/13 02:27:25;;;;;;;10.02;4.63;;;;;;;19.58;64.66;99339.72;5177834;28;20058;-81
2022/05/13 02:30:16;;;;;;;7.90;4.45;;;;;;;19.74;64.52;99356.66;5177599;28;20444;-81
2022/05/13 02:33:06;;;;;;;10.05;4.43;;;;;;;19.80;64.29;99354.00;5163953;28;20058;-82
2022/05/13 02:35:59;;;;;;;7.93;4.53;;;;;;;19.84;63.72;99341.00;5161238;28;20053;-82
2022/05/13 02:38:49;;;;;;;8.23;4.82;;;;;;;19.78;64.44;99345.28;5164544;28;20061;-82
2022/05/13 02:41:40;;;;;;;18.45;5.72;;;;;;;19.82;63.33;99353.81;5175585;28;20108;-82
2022/05/13 02:44:30;;;;;;;8.20;4.72;;;;;;;19.62;64.19;99335.59;5158334;28;20058;-82
2022/05/13 02:47:21;;;;;;;6.55;4.25;;;;;;;19.69;64.11;99360.72;5158942;28;20078;-82
2022/05/13 02:50:17;;;;;;;5.65;4.22;;;;;;;19.59;64.36;99354.81;5158245;28;20058;-82
2022/05/13 02:53:07;;;;;;;11.68;5.00;;;;;;;19.60;63.85;99343.03;5170252;28;20049;-82
2022/05/13 02:55:57;;;;;;;9.13;4.75;;;;;;;19.65;64.51;99350.56;5168758;28;20130;-82
2022/05/13 02:58:48;;;;;;;15.07;5.15;;;;;;;19.64;64.09;99360.50;5169332;28;20058;-82
2022/05/13 03:01:38;;;;;;;6.97;5.00;;;;;;;19.55;64.09;99332.03;5151076;28;20058;-82
2022/05/13 03:04:28;;;;;;;7.90;4.70;;;;;;;19.57;64.31;99342.56;5167631;28;20062;-82
2022/05/13 03:07:19;;;;;;;9.68;5.00;;;;;;;19.60;64.69;99350.25;5164201;28;20064;-82
2022/05/13 03:10:11;;;;;;;12.10;5.18;;;;;;;19.44;64.63;99343.31;5167110;28;20050;-83
2022/05/13 03:13:05;;;;;;;10.07;5.20;;;;;;;19.73;64.63;99365.72;5167072;28;20077;-83
2022/05/13 03:16:01;;;;;;;9.40;5.20;;;;;;;19.43;64.80;99331.69;5164080;28;20305;-82
2022/05/13 03:18:55;;;;;;;12.80;5.55;;;;;;;19.40;64.70;99315.13;5168316;28;20063;-83
2022/05/13 03:21:45;;;;;;;8.93;5.40;;;;;;;19.49;64.63;99340.84;5146777;28;20144;-83
2022/05/13 03:24:35;;;;;;;12.57;5.82;;;;;;;19.00;66.47;99342.41;5153169;28;20165;-83
2022/05/13 03:27:26;;;;;;;12.57;5.60;;;;;;;19.25;65.96;99344.78;5167003;28;20065;-83
2022/05/13 03:30:21;;;;;;;10.23;5.50;;;;;;;19.30;66.25;99355.75;5167103;28;20085;-82
2022/05/13 03:33:11;;;;;;;10.98;5.25;;;;;;;19.46;65.19;99335.88;5167118;28;20057;-83
2022/05/13 03:36:02;;;;;;;10.82;5.57;;;;;;;19.53;65.07;99336.75;5150813;28;20057;-82
2022/05/13 03:38:52;;;;;;;11.57;5.30;;;;;;;19.39;65.36;99330.41;5141503;28;20050;-82
2022/05/13 03:41:42;;;;;;;11.63;6.20;;;;;;;19.44;65.31;99346.00;5161875;28;20456;-83
2022/05/13 03:44:34;;;;;;;10.68;6.25;;;;;;;19.34;65.28;99326.66;5144028;28;20058;-83
2022/05/13 03:47:25;;;;;;;9.95;5.78;;;;;;;19.31;65.16;99335.13;5161335;28;20056;-83
2022/05/13 03:50:16;;;;;;;10.25;6.07;;;;;;;19.12;66.49;99352.69;5165369;28;20100;-84
2022/05/13 03:53:07;;;;;;;10.07;5.53;;;;;;;19.17;65.28;99352.94;5153639;28;20058;-84
2022/05/13 03:55:58;;;;;;;10.98;6.30;;;;;;;19.12;65.48;99350.84;5167435;28;20136;-84
2022/05/13 03:58:48;;;;;;;7.95;5.85;;;;;;;19.24;65.94;99343.94;5155717;28;20065;-83
2022/05/13 04:01:38;;;;;;;11.60;5.78;;;;;;;19.22;65.14;99335.22;5180210;28;20424;-84
2022/05/13 04:08:56;;;;;;;11.73;6.18;;;;;;;19.31;65.74;99346.69;5154371;28;20057;-84
2022/05/13 04:10:49;;;;;;;9.10;5.90;;;;;;;19.24;66.00;99348.50;5163000;28;20061;-83
2022/05/13 04:16:50;;;;;;;12.27;6.10;;;;;;;19.16;65.83;99340.53;5159293;28;20049;-81
2022/05/13 04:19:40;;;;;;;13.00;6.60;;;;;;;19.30;65.85;99357.63;5149176;28;20069;-81
2022/05/13 04:22:31;;;;;;;15.55;6.68;;;;;;;19.06;66.93;99346.22;5148761;28;20105;-83
2022/05/13 04:25:23;;;;;;;10.88;7.03;;;;;;;19.04;67.00;99366.22;5146243;28;20061;-82
2022/05/13 04:28:13;;;;;;;14.38;7.53;;;;;;;19.19;65.98;99354.41;5148273;28;20054;-82
2022/05/13 04:31:05;;;;;;;15.73;6.88;;;;;;;19.17;66.04;99356.47;5158235;28;20525;-82
2022/05/13 04:33:58;;;;;;;13.85;7.78;;;;;;;19.17;66.50;99363.69;5165688;28;20488;-82
2022/05/13 04:36:49;;;;;;;10.40;6.32;;;;;;;19.29;66.00;99377.47;5164218;28;20125;-82
2022/05/13 04:39:40;;;;;;;15.43;7.05;;;;;;;18.98;67.38;99375.91;5162601;28;20046;-84
2022/05/13 04:42:49;;;;;;;12.00;7.40;;;;;;;19.30;66.48;99384.50;5172932;28;20057;-84
2022/05/13 04:45:42;;;;;;;12.23;6.95;;;;;;;19.19;67.12;99394.75;5184740;28;20333;-84
2022/05/13 04:48:32;;;;;;;12.63;6.70;;;;;;;19.33;66.45;99384.13;5162865;28;20085;-83
2022/05/13 04:51:23;;;;;;;10.82;7.07;;;;;;;19.28;66.19;99390.09;5145299;28;20050;-85
2022/05/13 04:54:13;;;;;;;13.18;7.05;;;;;;;19.39;65.88;99386.88;5176714;28;20056;-83
2022/05/13 04:57:07;;;;;;;12.40;6.93;;;;;;;19.44;65.87;99395.22;5166976;28;20108;-84
2022/05/13 04:59:57;;;;;;;11.75;7.00;;;;;;;19.22;66.25;99386.31;5163037;28;20057;-83
2022/05/13 05:02:48;;;;;;;15.57;7.72;;;;;;;19.51;65.75;99408.75;5160506;28;20584;-85
2022/05/13 05:05:38;;;;;;;13.57;7.30;;;;;;;19.48;65.01;99390.31;5170121;28;20053;-84
2022/05/13 05:08:30;;;;;;;13.48;7.75;;;;;;;19.58;64.56;99404.25;5171066;28;20048;-84
2022/05/13 05:11:20;;;;;;;13.43;6.88;;;;;;;19.62;64.77;99399.31;5154552;28;20072;-86
2022/05/13 05:14:10;;;;;;;12.05;7.80;;;;;;;19.44;64.53;99375.56;5171138;28;20088;-86
2022/05/13 05:17:05;;;;;;;12.45;6.97;;;;;;;19.46;65.87;99385.09;5161251;28;20054;-86
2022/05/13 05:19:55;;;;;;;10.48;7.00;;;;;;;19.36;66.32;99394.50;5159371;28;20126;-85
2022/05/13 05:22:47;;;;;;;14.10;7.15;;;;;;;19.85;64.82;99405.38;5173850;28;20053;-86
2022/05/13 05:25:37;;;;;;;17.40;7.43;;;;;;;19.55;65.68;99385.81;5159356;28;20121;-86
2022/05/13 05:28:28;;;;;;;10.68;7.15;;;;;;;19.84;64.57;99384.88;5176688;28;20054;-86
2022/05/13 05:31:18;;;;;;;15.50;7.05;;;;;;;19.92;65.16;99394.66;5179076;28;20085;-86
2022/05/13 05:34:09;;;;;;;9.82;7.15;;;;;;;19.74;64.98;99380.84;5166869;28;20046;-85
2022/05/13 05:36:59;;;;;;;12.13;7.18;;;;;;;19.97;64.52;99377.91;5158808;28;20046;-85
2022/05/13 05:40:12;;;;;;;16.33;7.82;;;;;;;20.06;63.76;99417.94;5163166;28;20047;-84
2022/05/13 05:43:09;;;;;;;12.13;6.60;;;;;;;19.93;63.07;99407.94;5188619;28;20081;-84
2022/05/13 05:45:59;;;;;;;11.38;6.40;;;;;;;19.83;63.42;99403.88;5172757;28;20061;-83
2022/05/13 05:48:50;;;;;;;11.80;6.22;;;;;;;19.54;63.64;99413.75;5173108;28;20053;-83
2022/05/13 05:51:40;;;;;;;11.63;6.15;;;;;;;19.87;62.95;99403.31;5158932;28;20062;-83
2022/05/13 05:57:40;;;;;;;18.40;6.25;;;;;;;19.63;62.58;99407.22;5171740;28;20049;-83
2022/05/13 06:00:32;;;;;;;13.35;6.75;;;;;;;19.64;63.81;99418.84;5181132;28;20034;-83
2022/05/13 06:03:22;;;;;;;13.73;6.20;;;;;;;19.50;64.11;99417.81;5158508;28;20062;-83
2022/05/13 06:06:13;;;;;;;12.75;5.85;;;;;;;19.46;62.91;99400.41;5183308;28;20054;-83
2022/05/13 06:09:03;;;;;;;15.05;5.93;;;;;;;19.60;61.98;99418.38;5179724;28;20050;-83
2022/05/13 06:11:53;;;;;;;16.27;5.53;;;;;;;19.60;62.24;99423.75;5172574;28;20057;-83
2022/05/13 06:14:44;;;;;;;9.90;5.45;;;;;;;19.73;62.79;99424.91;5163779;28;20050;-83
2022/05/13 06:17:34;;;;;;;13.32;6.43;;;;;;;19.80;62.41;99434.72;5174482;28;20046;-83
2022/05/13 06:20:30;;;;;;;15.05;6.10;;;;;;;20.13;62.60;99432.31;5184347;28;20077;-82
2022/05/13 06:23:20;;;;;;;9.63;5.35;;;;;;;20.25;61.24;99426.41;5158916;28;20046;-83
2022/05/13 06:26:11;;;;;;;15.43;6.07;;;;;;;20.51;60.74;99423.09;5157491;28;20039;-83
2022/05/13 06:29:03;;;;;;;9.00;5.43;;;;;;;20.29;60.50;99425.78;5180762;28;20100;-83
2022/05/13 06:31:54;;;;;;;11.52;4.95;;;;;;;19.98;61.49;99436.13;5155371;28;20042;-84
2022/05/13 06:34:44;;;;;;;11.52;5.38;;;;;;;19.93;60.47;99426.78;5184193;28;20073;-83
2022/05/13 06:37:34;;;;;;;14.18;5.10;;;;;;;19.76;61.51;99403.00;5161831;28;20058;-83
2022/05/13 06:40:26;;;;;;;12.27;4.38;;;;;;;19.39;60.49;99431.78;5180024;28;20057;-85
2022/05/13 06:43:18;;;;;;;11.02;5.32;;;;;;;19.88;59.51;99447.22;5177236;28;20132;-85
2022/05/13 06:46:08;;;;;;;15.13;5.10;;;;;;;19.71;59.41;99436.72;5175660;28;20097;-85
2022/05/13 06:48:59;;;;;;;11.63;4.70;;;;;;;20.50;58.66;99426.78;5160096;28;20104;-85
2022/05/13 06:51:49;;;;;;;12.45;5.18;;;;;;;20.99;58.38;99459.03;5178062;28;20061;-85
2022/05/13 06:54:40;;;;;;;10.02;4.70;;;;;;;20.78;56.50;99440.25;5169877;28;20106;-82
2022/05/13 06:57:31;;;;;;;10.60;4.90;;;;;;;20.75;57.22;99428.00;5169231;28;20053;-84
2022/05/13 07:00:21;;;;;;;11.57;4.60;;;;;;;21.14;56.70;99426.53;5174840;28;20046;-83
2022/05/13 07:03:13;;;;;;;11.35;4.55;;;;;;;20.76;55.90;99439.59;5151901;28;20077;-85
2022/05/13 07:06:04;;;;;;;8.65;4.30;;;;;;;20.80;57.16;99459.75;5154106;28;20057;-84
2022/05/13 07:08:55;;;;;;;11.27;4.72;;;;;;;20.10;55.97;99466.88;5153009;28;20050;-83
2022/05/13 07:11:45;;;;;;;7.93;3.88;;;;;;;20.35;55.47;99441.16;5167190;28;20089;-83
2022/05/13 07:14:36;;;;;;;14.00;3.90;;;;;;;20.14;55.40;99442.06;5163840;28;20046;-83
2022/05/13 07:17:26;;;;;;;11.43;3.67;;;;;;;20.04;56.41;99481.94;5164209;28;20073;-83
2022/05/13 07:20:16;;;;;;;14.02;4.13;;;;;;;20.20;56.67;99480.84;5165588;28;20085;-83
2022/05/13 07:23:06;;;;;;;11.07;4.03;;;;;;;20.03;56.57;99472.19;5173700;28;20065;-82
2022/05/13 07:25:59;;;;;;;14.10;4.10;;;;;;;20.19;55.93;99487.22;5180011;28;20057;-83
2022/05/13 07:28:49;;;;;;;12.60;3.38;;;;;;;19.89;54.37;99470.41;5158772;28;20066;-83
2022/05/13 07:31:40;;;;;;;14.30;4.00;;;;;;;19.29;56.91;99476.97;5172772;28;20092;-82
2022/05/13 07:34:30;;;;;;;11.82;4.20;;;;;;;19.65;55.86;99464.38;5158387;28;20082;-82
2022/05/13 07:37:21;;;;;;;6.45;3.45;;;;;;;20.42;55.14;99465.47;5179035;28;20128;-82
2022/05/13 07:43:21;;;;;;;11.18;3.83;;;;;;;20.53;53.76;99467.66;5178840;28;20074;-82
2022/05/13 07:46:13;;;;;;;12.00;3.28;;;;;;;21.19;53.88;99496.00;5178743;28;20078;-84
2022/05/13 07:49:03;;;;;;;16.98;3.50;;;;;;;20.70;52.55;99475.44;5170924;28;20061;-83
2022/05/13 07:51:53;;;;;;;9.35;3.40;;;;;;;19.94;55.49;99486.81;5178394;28;20117;-82
2022/05/13 07:54:44;;;;;;;12.38;3.38;;;;;;;19.61;56.48;99475.69;5181501;28;20056;-83
2022/05/13 07:57:38;;;;;;;15.38;3.88;;;;;;;20.56;56.26;99496.91;5168903;28;20046;-83
2022/05/13 08:00:32;;;;;;;11.65;3.30;;;;;;;20.82;54.18;99504.31;5163685;28;20059;-85
2022/05/13 08:03:22;;;;;;;12.23;3.70;;;;;;;21.28;53.04;99502.91;5179165;28;20058;-83
2022/05/13 08:06:13;;;;;;;10.10;3.25;;;;;;;21.09;55.05;99507.16;5180114;28;20077;-84
2022/05/13 08:09:04;;;;;;;13.68;4.15;;;;;;;21.17;53.81;99511.56;5163157;28;20058;-84
2022/05/13 08:11:54;;;;;;;12.35;3.45;;;;;;;21.73;53.97;99512.25;5164129;28;20054;-82
2022/05/13 08:14:45;;;;;;;9.38;3.55;;;;;;;21.57;53.66;99499.13;5164078;28;20042;-83
2022/05/13 08:17:35;;;;;;;11.38;3.30;;;;;;;22.00;51.70;99501.50;5164886;28;20081;-83
2022/05/13 08:20:27;;;;;;;6.80;2.95;;;;;;;21.58;52.35;99498.91;5164552;28;20061;-84
2022/05/13 08:23:18;;;;;;;11.10;3.78;;;;;;;22.06;51.86;99492.59;5161582;28;20065;-84
2022/05/13 08:26:08;;;;;;;11.18;3.38;;;;;;;22.59;51.14;99480.97;5171678;28;20057;-84
2022/05/13 08:28:59;;;;;;;9.25;2.90;;;;;;;23.01;48.91;99508.56;5170507;28;20140;-85
2022/05/13 08:31:50;;;;;;;8.48;2.88;;;;;;;22.51;48.60;99504.44;5167654;28;20081;-84
2022/05/13 08:34:40;;;;;;;6.43;2.65;;;;;;;22.81;49.32;99516.69;5168431;28;20061;-84
2022/05/13 08:37:53;;;;;;;11.98;2.92;;;;;;;21.89;50.10;99494.84;5141869;28;20053;-84
2022/05/13 08:40:52;;;;;;;15.43;2.50;;;;;;;22.12;45.30;99517.91;5143593;28;20176;-86
2022/05/13 08:43:49;;;;;;;12.35;2.70;;;;;;;23.88;41.97;99502.63;5164923;28;20085;-84
2022/05/13 08:47:00;;;;;;;15.93;3.33;;;;;;;22.56;45.11;99465.19;5155162;28;20057;-86
2022/05/13 08:50:15;;;;;;;12.15;2.83;;;;;;;23.10;47.81;99513.53;5169495;28;20427;-86
2022/05/13 08:53:21;;;;;;;11.82;3.00;;;;;;;24.01;44.52;99511.72;5159271;28;20129;-84
2022/05/13 08:56:15;;;;;;;12.40;3.20;;;;;;;23.86;46.50;99502.00;5151424;28;20054;-85
2022/05/13 08:59:13;;;;;;;6.80;2.97;;;;;;;23.40;45.10;99483.25;5145963;28;20055;-86
2022/05/13 09:02:10;;;;;;;10.18;3.35;;;;;;;22.46;46.03;99509.66;5170112;28;20144;-85
2022/05/13 09:05:03;;;;;;;11.15;3.30;;;;;;;22.39;45.36;99516.13;5164085;28;20054;-84
2022/05/13 09:07:55;;;;;;;10.88;2.80;;;;;;;21.73;45.89;99504.16;5168608;28;20058;-85
2022/05/13 09:10:57;;;;;;;7.95;2.55;;;;;;;21.62;44.95;99514.69;5157880;28;20079;-82
2022/05/13 09:14:08;;;;;;;13.40;2.55;;;;;;;21.44;46.82;99523.34;5159967;28;20195;-82
2022/05/13 09:17:17;;;;;;;11.23;2.88;;;;;;;21.88;45.04;99525.56;5169525;28;20082;-83
2022/05/13 09:20:22;;;;;;;6.70;2.33;;;;;;;20.95;46.67;99506.25;5171608;28;20050;-83
2022/05/13 09:23:13;;;;;;;10.68;2.30;;;;;;;21.02;47.49;99525.16;5167197;28;20057;-83
2022/05/13 09:26:13;;;;;;;7.50;2.35;;;;;;;20.05;47.60;99497.06;5151866;28;20956;-83
2022/05/13 09:29:08;;;;;;;12.05;2.38;;;;;;;19.75;48.25;99442.53;5156383;28;20140;-83
2022/05/13 09:32:00;;;;;;;6.93;2.50;;;;;;;20.83;47.06;99530.25;5148102;28;20058;-81
2022/05/13 09:35:05;;;;;;;13.88;2.50;;;;;;;21.61;45.32;99530.06;5164844;28;20407;-82
2022/05/13 09:37:56;;;;;;;12.75;2.22;;;;;;;20.57;46.43;99517.41;5147372;28;20057;-81
2022/05/13 09:41:08;;;;;;;8.77;2.33;;;;;;;20.93;48.43;99527.22;5156857;28;20053;-81
2022/05/13 09:44:22;;;;;;;8.55;2.30;;;;;;;21.68;47.37;99527.38;5148137;28;20420;-82
2022/05/13 09:47:40;;;;;;;14.60;2.97;;;;;;;21.32;46.26;99501.47;5177805;28;20054;-84
2022/05/13 09:51:31;;;;;;;8.55;2.40;;;;;;;21.90;44.44;99519.97;5187356;28;20050;-85
2022/05/13 09:59:51;;;;;;;6.18;2.17;;;;;;;21.07;47.84;99528.13;5183295;28;20049;-83
2022/05/13 10:03:03;;;;;;;;;;;;;;;;;;;;;
2022/05/13 10:06:39;;;;;;;9.90;2.97;;;;;;;21.42;45.82;99533.50;5175776;28;20050;-83
2022/05/13 10:16:50;;;;;;;11.60;2.80;;;;;;;20.88;46.53;99530.47;5155717;28;20122;-82
2022/05/13 10:19:47;;;;;;;8.60;2.83;;;;;;;21.46;46.56;99510.50;5165498;28;20081;-83
2022/05/13 10:22:42;;;;;;;10.82;2.70;;;;;;;21.40;47.14;99533.72;5170626;28;20050;-82
2022/05/13 10:25:48;;;;;;;7.38;2.40;;;;;;;21.47;46.69;99522.94;5150111;28;20102;-82
2022/05/13 10:28:47;;;;;;;11.20;3.50;;;;;;;21.71;45.84;99525.09;5153466;28;20081;-82
2022/05/13 10:31:41;;;;;;;7.25;2.92;;;;;;;22.44;45.89;99529.81;5158171;28;20061;-82
2022/05/13 10:34:40;;;;;;;10.88;2.70;;;;;;;21.96;45.84;99525.38;5164353;28;20065;-83
2022/05/13 10:37:50;;;;;;;10.60;2.97;;;;;;;21.79;45.63;99511.44;5130370;28;20051;-83
2022/05/13 10:40:46;;;;;;;8.95;2.90;;;;;;;21.96;45.53;99519.97;5146803;28;20070;-82
2022/05/13 10:44:02;;;;;;;9.77;2.90;;;;;;;22.01;46.50;99498.59;5167028;28;20093;-83
2022/05/13 10:46:56;;;;;;;9.27;3.00;;;;;;;21.65;45.71;99527.78;5156188;28;20061;-82
2022/05/13 10:49:57;;;;;;;8.27;3.00;;;;;;;22.62;48.24;99518.41;5139511;28;20051;-83
2022/05/13 10:53:12;;;;;;;7.93;2.53;;;;;;;22.86;46.13;99519.59;5167111;28;20052;-82
2022/05/13 10:56:17;;;;;;;8.25;2.92;;;;;;;23.07;45.65;99492.31;5174880;28;20050;-82
2022/05/13 10:59:20;;;;;;;9.07;2.90;;;;;;;23.23;43.50;99515.38;5167806;28;20042;-82
2022/05/13 11:02:32;;;;;;;11.13;3.08;;;;;;;23.07;43.47;99522.06;5170022;28;20053;-82
2022/05/13 11:05:46;;;;;;;9.73;2.40;;;;;;;23.07;45.48;99503.13;5175679;28;20053;-82
2022/05/13 11:09:14;;;;;;;16.73;3.00;;;;;;;23.82;44.13;99517.03;5172646;28;20053;-82
2022/05/13 11:12:45;;;;;;;9.43;2.83;;;;;;;22.93;43.94;99526.69;5163719;28;20050;-82
2022/05/13 11:16:02;;;;;;;7.88;3.00;;;;;;;22.27;43.98;99519.41;5154132;28;20050;-83
2022/05/13 11:19:02;;;;;;;8.55;2.92;;;;;;;22.67;44.29;99446.44;5154798;28;20315;-83
2022/05/13 11:22:08;;;;;;;13.75;3.63;;;;;;;23.73;45.67;99488.53;5168786;28;20130;-82
2022/05/13 11:28:51;;;;;;;14.17;2.97;;;;;;;24.67;43.46;99508.50;5168366;28;20056;-83
2022/05/13 11:32:02;;;;;;;7.80;3.00;;;;;;;25.12;43.64;99510.97;5165639;28;20799;-83
2022/05/13 11:35:27;;;;;;;9.27;2.67;;;;;;;25.03;43.70;99504.16;5161443;28;20065;-83
2022/05/13 11:38:40;;;;;;;11.63;2.90;;;;;;;24.75;41.87;99475.66;5147097;28;20061;-83
2022/05/13 11:42:00;;;;;;;9.05;3.20;;;;;;;25.33;43.75;99479.84;5172969;28;20117;-82
2022/05/13 11:45:26;;;;;;;8.73;2.97;;;;;;;24.58;43.54;99498.97;5158645;28;20076;-82
2022/05/13 11:48:49;;;;;;;12.48;3.40;;;;;;;24.42;42.07;99494.13;5159722;28;20046;-81
2022/05/13 11:51:40;;;;;;;11.10;2.78;;;;;;;24.13;43.34;99488.25;5172458;28;20059;-81
2022/05/13 11:54:30;;;;;;;8.57;2.70;;;;;;;24.32;43.02;99483.75;5143673;28;20065;-81
2022/05/13 11:57:28;;;;;;;7.68;3.03;;;;;;;25.10;42.65;99491.38;5157146;28;20057;-82
2022/05/13 12:00:31;;;;;;;8.90;2.85;;;;;;;25.47;41.13;99491.38;5156817;28;20057;-82
2022/05/13 12:03:22;;;;;;;8.38;2.92;;;;;;;24.81;41.90;99474.75;5149091;28;20495;-82
2022/05/13 12:06:13;;;;;;;9.50;2.65;;;;;;;24.26;43.14;99469.19;5150624;28;20145;-82
2022/05/13 12:09:09;;;;;;;11.18;3.00;;;;;;;25.08;38.92;99478.00;5164969;28;20152;-82
2022/05/13 12:12:21;;;;;;;6.45;2.58;;;;;;;24.27;44.22;99478.16;5142107;28;20059;-81
2022/05/13 12:15:34;;;;;;;6.00;2.50;;;;;;;24.59;41.33;99481.66;5162966;28;20069;-82
2022/05/13 12:18:39;;;;;;;9.00;2.60;;;;;;;24.18;45.40;99477.59;5153998;28;20058;-83
2022/05/13 12:21:39;;;;;;;9.70;2.53;;;;;;;24.52;41.48;99475.47;5155586;28;20112;-82
2022/05/13 12:24:53;;;;;;;15.63;2.97;;;;;;;24.17;41.01;99473.22;5139306;28;20094;-83
2022/05/13 12:27:44;;;;;;;8.75;2.35;;;;;;;23.76;41.58;99463.72;5159408;28;20073;-82
2022/05/13 12:30:50;;;;;;;9.15;2.10;;;;;;;23.05;40.81;99455.75;5140683;28;20066;-82
2022/05/13 12:33:49;;;;;;;9.32;2.47;;;;;;;23.13;42.95;99448.19;5155825;28;20501;-81
2022/05/13 12:40:22;;;;;;;6.10;2.22;;;;;;;24.54;39.47;99452.50;5160884;28;20723;-82
2022/05/13 12:43:25;;;;;;;7.25;2.25;;;;;;;24.70;41.29;99447.53;5167070;28;20055;-82
2022/05/13 12:46:38;;;;;;;9.70;2.22;;;;;;;24.73;41.30;99423.50;5154054;28;20057;-82
2022/05/13 12:49:48;;;;;;;6.43;1.90;;;;;;;23.70;41.44;99445.66;5141584;28;20093;-82
2022/05/13 12:52:40;;;;;;;11.43;1.98;;;;;;;23.92;40.85;99435.28;5156687;28;20066;-81
2022/05/13 12:55:31;;;;;;;7.45;1.77;;;;;;;24.10;40.56;99438.06;5141224;28;20168;-81
2022/05/13 12:58:23;;;;;;;10.05;2.10;;;;;;;24.33;39.72;99445.56;5146932;28;20073;-81
2022/05/13 13:01:15;;;;;;;4.18;1.58;;;;;;;23.68;39.52;99435.03;5134539;28;20058;-82
2022/05/13 13:04:09;;;;;;;4.93;1.60;;;;;;;23.96;38.34;99431.09;5158686;28;20131;-83
2022/05/13 13:07:11;;;;;;;5.07;1.70;;;;;;;24.06;36.42;99442.25;5163367;28;20483;-83
2022/05/13 13:10:03;;;;;;;9.52;1.98;;;;;;;24.13;36.86;99431.38;5142990;28;20056;-83
2022/05/13 13:13:07;;;;;;;4.38;1.50;;;;;;;24.02;36.05;99435.63;5164993;28;20057;-83
2022/05/13 13:16:02;;;;;;;5.70;1.80;;;;;;;24.22;36.26;99424.63;5145603;28;20073;-83
2022/05/13 13:19:20;;;;;;;4.30;1.40;;;;;;;24.00;38.74;99423.34;5154358;28;20101;-83
2022/05/13 13:22:12;;;;;;;6.28;1.55;;;;;;;24.28;36.21;99429.16;5171972;28;20081;-83
2022/05/13 13:25:30;;;;;;;10.63;1.73;;;;;;;24.41;36.60;99435.56;5163049;28;20143;-82
2022/05/13 13:28:23;;;;;;;4.80;1.60;;;;;;;23.75;37.45;99435.00;5184583;28;20042;-82
2022/05/13 13:31:21;;;;;;;3.92;1.30;;;;;;;23.25;36.31;99440.25;5171224;28;20047;-83
2022/05/13 13:34:47;;;;;;;6.43;1.73;;;;;;;22.88;37.57;99433.69;5161965;28;20077;-83
2022/05/13 13:37:39;;;;;;;6.63;1.70;;;;;;;23.02;36.17;99402.91;5181700;28;20222;-82
2022/05/13 13:40:35;;;;;;;8.05;1.88;;;;;;;22.46;37.39;99415.09;5164143;28;20145;-81
2022/05/13 13:43:29;;;;;;;5.65;2.00;;;;;;;23.50;37.31;99426.78;5163969;28;20054;-83
2022/05/13 13:46:24;;;;;;;4.78;1.58;;;;;;;23.94;37.16;99421.53;5163607;28;20058;-83
2022/05/13 13:49:36;;;;;;;8.82;1.70;;;;;;;23.33;37.94;99417.53;5162898;28;20078;-82
2022/05/13 13:52:34;;;;;;;4.47;1.55;;;;;;;23.81;39.29;99396.22;5166057;28;20159;-82
2022/05/13 13:55:38;;;;;;;5.30;1.52;;;;;;;23.92;37.29;99403.63;5147979;28;20061;-82
2022/05/13 13:58:46;;;;;;;7.28;1.80;;;;;;;23.77;37.34;99419.34;5166465;28;20119;-82
2022/05/13 14:01:46;;;;;;;7.40;1.88;;;;;;;23.08;37.45;99402.03;5162296;28;20568;-82
2022/05/13 14:04:48;;;;;;;9.77;1.80;;;;;;;22.66;38.09;99419.63;5157387;28;20133;-83
2022/05/13 14:07:43;;;;;;;8.45;1.50;;;;;;;22.33;37.96;99404.31;5144956;28;20058;-83
2022/05/13 14:10:47;;;;;;;9.70;1.50;;;;;;;22.69;37.24;99409.22;5157107;28;20061;-82
2022/05/13 14:13:41;;;;;;;6.30;1.85;;;;;;;23.04;38.68;99410.78;5165005;28;20172;-83
2022/05/13 14:16:35;;;;;;;4.93;1.67;;;;;;;24.08;38.85;99440.16;5150517;28;20054;-81
2022/05/13 14:19:40;;;;;;;6.13;1.70;;;;;;;23.94;38.27;99429.66;5164620;28;20453;-81